createdAt,value
2017-10-20T00:02:18.749Z,4.85
2017-10-20T00:04:46.315Z,4.25
2017-10-20T00:07:13.914Z,3.58
2017-10-20T00:09:41.491Z,4.95
2017-10-20T00:12:09.079Z,4.32
2017-10-20T00:14:36.633Z,4.50
2017-10-20T00:17:04.177Z,4.60
2017-10-20T00:19:31.763Z,3.80
2017-10-20T00:21:59.323Z,4.75
2017-10-20T00:24:26.901Z,4.35
2017-10-20T00:26:55.220Z,4.00
2017-10-20T00:29:22.793Z,4.75
2017-10-20T00:31:50.369Z,3.58
2017-10-20T00:34:17.950Z,4.75
2017-10-20T00:36:45.501Z,5.20
2017-10-20T00:39:13.061Z,4.30
2017-10-20T00:41:40.648Z,5.32
2017-10-20T00:44:08.981Z,4.18
2017-10-20T00:46:36.544Z,4.35
2017-10-20T00:49:04.118Z,4.72
2017-10-20T00:51:31.683Z,4.72
2017-10-20T00:53:59.238Z,5.00
2017-10-20T00:56:26.848Z,4.57
2017-10-20T00:58:54.411Z,4.40
2017-10-20T01:01:22.055Z,4.20
2017-10-20T01:03:49.630Z,5.30
2017-10-20T01:06:17.205Z,4.53
2017-10-20T01:08:44.791Z,5.00
2017-10-20T01:11:12.341Z,4.75
2017-10-20T01:13:39.926Z,5.50
2017-10-20T01:16:07.513Z,4.60
2017-10-20T01:18:35.104Z,4.70
2017-10-20T01:21:02.683Z,4.40
2017-10-20T01:23:30.309Z,4.93
2017-10-20T01:25:57.918Z,4.37
2017-10-20T01:28:25.501Z,4.65
2017-10-20T01:30:53.865Z,4.93
2017-10-20T01:33:21.483Z,4.45
2017-10-20T01:35:49.096Z,5.20
2017-10-20T01:38:17.423Z,4.43
2017-10-20T01:40:45.033Z,4.85
2017-10-20T01:43:13.383Z,4.90
2017-10-20T01:45:40.996Z,5.03
2017-10-20T01:48:08.590Z,4.93
2017-10-20T01:50:36.216Z,3.60
2017-10-20T01:53:03.842Z,4.50
2017-10-20T01:55:31.425Z,5.75
2017-10-20T01:57:59.020Z,4.50
2017-10-20T02:00:26.613Z,5.00
2017-10-20T02:02:54.209Z,4.95
2017-10-20T02:05:22.536Z,5.00
2017-10-20T02:07:50.108Z,5.30
2017-10-20T02:10:17.708Z,4.62
2017-10-20T02:12:46.069Z,5.05
2017-10-20T02:15:14.410Z,5.30
2017-10-20T02:17:42.010Z,5.90
2017-10-20T02:20:10.349Z,5.10
2017-10-20T02:22:37.898Z,5.60
2017-10-20T02:25:05.475Z,4.22
2017-10-20T02:27:33.065Z,4.85
2017-10-20T02:30:01.418Z,4.80
2017-10-20T02:32:28.962Z,5.70
2017-10-20T02:34:56.561Z,4.90
2017-10-20T02:37:24.126Z,4.50
2017-10-20T02:39:52.498Z,5.10
2017-10-20T02:42:20.040Z,4.60
2017-10-20T02:44:47.580Z,6.50
2017-10-20T02:47:15.160Z,5.53
2017-10-20T02:49:42.709Z,4.97
2017-10-20T02:52:10.286Z,6.07
2017-10-20T02:54:37.907Z,5.85
2017-10-20T02:57:05.460Z,5.65
2017-10-20T02:59:33.035Z,5.60
2017-10-20T03:02:00.631Z,4.40
2017-10-20T03:04:28.222Z,4.93
2017-10-20T03:06:55.760Z,5.25
2017-10-20T03:09:24.113Z,5.93
2017-10-20T03:11:51.647Z,5.40
2017-10-20T03:14:19.185Z,4.78
2017-10-20T03:16:46.795Z,6.78
2017-10-20T03:19:14.335Z,6.85
2017-10-20T03:21:41.904Z,7.70
2017-10-20T03:24:09.503Z,9.70
2017-10-20T03:26:37.835Z,8.80
2017-10-20T03:29:05.393Z,7.10
2017-10-20T03:31:32.999Z,7.20
2017-10-20T03:34:01.328Z,6.93
2017-10-20T03:36:28.900Z,8.07
2017-10-20T03:38:56.497Z,7.07
2017-10-20T03:41:24.814Z,6.40
2017-10-20T03:43:52.358Z,6.50
2017-10-20T03:46:19.967Z,6.32
2017-10-20T03:48:47.554Z,7.30
2017-10-20T03:51:15.884Z,6.95
2017-10-20T03:53:43.530Z,6.22
2017-10-20T03:56:11.119Z,5.15
2017-10-20T03:58:38.711Z,5.70
2017-10-20T04:01:07.086Z,6.22
2017-10-20T04:03:35.435Z,6.20
2017-10-20T04:06:03.023Z,6.12
2017-10-20T04:08:31.418Z,5.00
2017-10-20T04:10:59.006Z,5.80
2017-10-20T04:13:26.573Z,4.78
2017-10-20T04:15:54.187Z,5.25
2017-10-20T04:18:22.546Z,4.85
2017-10-20T04:20:50.115Z,4.47
2017-10-20T04:23:18.466Z,4.65
2017-10-20T04:25:46.035Z,4.68
2017-10-20T04:28:13.600Z,3.92
2017-10-20T04:30:41.210Z,4.43
2017-10-20T04:33:08.778Z,4.70
2017-10-20T04:35:36.313Z,3.95
2017-10-20T04:38:04.661Z,4.12
2017-10-20T04:40:32.262Z,3.90
2017-10-20T04:42:59.833Z,4.10
2017-10-20T04:45:27.406Z,4.20
2017-10-20T04:47:54.949Z,4.28
2017-10-20T04:50:22.502Z,4.07
2017-10-20T04:52:50.108Z,4.30
2017-10-20T04:55:17.644Z,4.43
2017-10-20T04:57:45.212Z,4.30
2017-10-20T05:00:12.779Z,4.18
2017-10-20T05:02:40.322Z,3.80
2017-10-20T05:05:07.892Z,4.78
2017-10-20T05:07:35.460Z,3.80
2017-10-20T05:10:03.042Z,4.40
2017-10-20T05:12:30.585Z,5.03
2017-10-20T05:14:58.156Z,4.05
2017-10-20T05:17:25.730Z,4.15
2017-10-20T05:19:54.671Z,4.45
2017-10-20T05:22:22.257Z,4.25
2017-10-20T05:24:49.812Z,12.48
2017-10-20T05:27:17.362Z,9.98
2017-10-20T05:29:44.958Z,6.70
2017-10-20T05:32:13.287Z,6.40
2017-10-20T05:34:40.847Z,9.25
2017-10-20T05:37:08.465Z,10.32
2017-10-20T05:39:36.025Z,6.05
2017-10-20T05:42:04.941Z,6.75
2017-10-20T05:44:32.516Z,6.07
2017-10-20T05:47:00.081Z,4.20
2017-10-20T05:49:27.649Z,5.80
2017-10-20T05:51:55.226Z,4.60
2017-10-20T05:54:22.771Z,4.30
2017-10-20T05:56:50.315Z,4.62
2017-10-20T05:59:17.907Z,4.07
2017-10-20T06:01:45.462Z,5.50
2017-10-20T06:04:13.025Z,5.05
2017-10-20T06:06:40.640Z,6.28
2017-10-20T06:09:08.218Z,4.22
2017-10-20T06:11:35.777Z,4.47
2017-10-20T06:14:03.369Z,4.40
2017-10-20T06:16:30.921Z,4.20
2017-10-20T06:18:58.479Z,4.65
2017-10-20T06:21:26.941Z,8.38
2017-10-20T06:23:54.507Z,6.28
2017-10-20T06:26:22.125Z,5.03
2017-10-20T06:28:49.694Z,6.45
2017-10-20T06:31:17.251Z,4.85
2017-10-20T06:33:44.824Z,9.20
2017-10-20T06:36:12.420Z,8.05
2017-10-20T06:38:39.985Z,5.15
2017-10-20T06:41:07.554Z,5.15
2017-10-20T06:43:35.144Z,7.05
2017-10-20T06:46:02.724Z,6.15
2017-10-20T06:48:30.323Z,8.52
2017-10-20T06:50:57.953Z,8.75
2017-10-20T06:53:25.517Z,5.65
2017-10-20T06:55:53.131Z,6.40
2017-10-20T06:58:21.493Z,7.78
2017-10-20T07:00:49.815Z,7.60
2017-10-20T07:03:17.371Z,5.90
2017-10-20T07:05:44.996Z,5.87
2017-10-20T07:08:13.366Z,8.13
2017-10-20T07:10:40.924Z,7.53
2017-10-20T07:13:08.573Z,7.70
2017-10-20T07:15:36.181Z,7.27
2017-10-20T07:18:13.703Z,8.93
2017-10-20T07:23:41.227Z,5.10
2017-10-20T07:26:09.549Z,5.17
2017-10-20T07:28:37.118Z,5.50
2017-10-20T07:31:04.777Z,7.73
2017-10-20T07:33:32.368Z,5.10
2017-10-20T07:35:59.941Z,4.23
2017-10-20T07:38:27.563Z,5.20
2017-10-20T07:40:55.143Z,4.50
2017-10-20T07:43:22.711Z,5.60
2017-10-20T07:45:50.302Z,6.07
2017-10-20T07:48:18.678Z,4.30
2017-10-20T07:50:47.001Z,5.47
2017-10-20T07:53:14.617Z,5.03
2017-10-20T07:55:42.959Z,4.03
2017-10-20T07:58:10.537Z,3.70
2017-10-20T08:00:38.892Z,5.60
2017-10-20T08:03:06.455Z,4.40
2017-10-20T08:05:34.043Z,4.10
2017-10-20T08:08:02.407Z,3.70
2017-10-20T08:10:29.967Z,3.60
2017-10-20T08:12:58.299Z,3.23
2017-10-20T08:15:25.880Z,4.03
2017-10-20T08:17:53.462Z,3.13
2017-10-20T08:20:21.014Z,3.13
2017-10-20T08:22:48.596Z,3.13
2017-10-20T08:25:16.970Z,4.13
2017-10-20T08:27:44.550Z,3.70
2017-10-20T08:30:12.910Z,3.60
2017-10-20T08:32:40.469Z,3.70
2017-10-20T08:35:08.047Z,3.50
2017-10-20T08:37:36.416Z,4.10
2017-10-20T08:40:05.484Z,3.67
2017-10-20T08:42:33.050Z,4.40
2017-10-20T08:45:00.680Z,4.40
2017-10-20T08:47:28.298Z,3.63
2017-10-20T08:49:56.641Z,3.90
2017-10-20T08:52:24.276Z,3.53
2017-10-20T08:54:51.852Z,4.13
2017-10-20T08:57:19.439Z,3.43
2017-10-20T08:59:47.039Z,4.27
2017-10-20T09:02:14.594Z,4.30
2017-10-20T09:04:42.168Z,3.30
2017-10-20T09:07:09.742Z,3.53
2017-10-20T09:09:37.296Z,3.33
2017-10-20T09:12:04.887Z,3.60
2017-10-20T09:14:32.481Z,2.73
2017-10-20T09:17:00.842Z,3.00
2017-10-20T09:19:29.162Z,3.30
2017-10-20T09:21:56.765Z,3.47
2017-10-20T09:24:24.340Z,3.07
2017-10-20T09:26:51.893Z,3.60
2017-10-20T09:29:19.502Z,3.57
2017-10-20T09:31:47.052Z,3.27
2017-10-20T09:34:14.640Z,3.07
2017-10-20T09:36:42.223Z,3.53
2017-10-20T09:39:09.772Z,3.40
2017-10-20T09:41:37.340Z,3.00
2017-10-20T09:44:04.955Z,3.60
2017-10-20T09:46:32.531Z,4.00
2017-10-20T09:49:00.099Z,3.20
2017-10-20T09:51:27.680Z,3.07
2017-10-20T09:53:55.228Z,3.43
2017-10-20T09:56:23.398Z,5.30
2017-10-20T09:58:50.986Z,2.77
2017-10-20T10:01:18.538Z,2.90
2017-10-20T10:03:46.096Z,2.90
2017-10-20T10:06:13.697Z,2.67
2017-10-20T10:08:41.282Z,3.30
2017-10-20T10:11:08.906Z,2.93
2017-10-20T10:13:37.240Z,3.23
2017-10-20T10:16:04.810Z,2.83
2017-10-20T10:18:32.373Z,3.27
2017-10-20T10:21:01.492Z,3.83
2017-10-20T10:23:29.066Z,4.20
2017-10-20T10:25:56.649Z,2.80
2017-10-20T10:28:24.229Z,3.00
2017-10-20T10:30:51.797Z,2.90
2017-10-20T10:33:19.349Z,2.77
2017-10-20T10:35:46.952Z,4.63
2017-10-20T10:38:15.295Z,2.50
2017-10-20T10:40:42.837Z,3.20
2017-10-20T10:43:10.412Z,3.40
2017-10-20T10:45:37.980Z,2.87
2017-10-20T10:48:05.552Z,2.97
2017-10-20T10:50:33.160Z,3.57
2017-10-20T10:53:00.727Z,3.00
2017-10-20T10:55:28.303Z,3.97
2017-10-20T10:57:55.913Z,2.90
2017-10-20T11:00:24.268Z,3.00
2017-10-20T11:02:51.824Z,3.40
2017-10-20T11:05:31.230Z,2.87
2017-10-20T11:11:20.155Z,3.23
2017-10-20T11:13:47.751Z,3.43
2017-10-20T11:16:15.338Z,3.50
2017-10-20T11:18:42.929Z,3.10
2017-10-20T11:21:10.488Z,3.87
2017-10-20T11:23:38.057Z,2.97
2017-10-20T11:26:06.428Z,2.83
2017-10-20T11:28:34.048Z,3.53
2017-10-20T11:31:01.592Z,3.60
2017-10-20T11:33:29.210Z,2.70
2017-10-20T11:35:56.780Z,3.23
2017-10-20T11:38:25.113Z,2.93
2017-10-20T11:40:52.706Z,3.10
2017-10-20T11:43:20.256Z,4.00
2017-10-20T11:45:47.823Z,3.13
2017-10-20T11:48:15.445Z,4.57
2017-10-20T11:50:43.061Z,3.43
2017-10-20T11:53:11.394Z,4.50
2017-10-20T11:55:38.996Z,4.63
2017-10-20T11:58:07.344Z,2.97
2017-10-20T12:00:35.674Z,2.83
2017-10-20T12:03:03.315Z,26.07
2017-10-20T12:05:31.657Z,4.50
2017-10-20T12:07:59.267Z,3.20
2017-10-20T12:10:26.899Z,3.10
2017-10-20T12:12:54.478Z,5.07
2017-10-20T12:15:22.821Z,3.10
2017-10-20T12:17:50.417Z,2.83
2017-10-20T12:20:18.728Z,3.27
2017-10-20T12:22:46.272Z,2.87
2017-10-20T12:25:13.879Z,3.70
2017-10-20T12:27:41.447Z,2.50
2017-10-20T12:30:09.002Z,3.17
2017-10-20T12:32:36.594Z,3.40
2017-10-20T12:35:04.961Z,2.90
2017-10-20T12:37:33.288Z,3.00
2017-10-20T12:40:00.886Z,3.63
2017-10-20T12:42:28.457Z,2.93
2017-10-20T12:44:56.014Z,3.03
2017-10-20T12:47:24.404Z,4.13
2017-10-20T12:49:52.737Z,3.60
2017-10-20T12:52:20.294Z,3.33
2017-10-20T12:54:47.897Z,3.60
2017-10-20T12:57:16.239Z,2.90
2017-10-20T12:59:43.826Z,3.77
2017-10-20T13:02:11.438Z,3.40
2017-10-20T13:04:39.006Z,3.60
2017-10-20T13:07:06.578Z,3.10
2017-10-20T13:09:34.183Z,5.20
2017-10-20T13:12:02.520Z,3.93
2017-10-20T13:14:30.085Z,2.90
2017-10-20T13:16:57.673Z,3.60
2017-10-20T13:19:26.004Z,3.60
2017-10-20T13:21:53.598Z,3.80
2017-10-20T13:24:21.245Z,3.83
2017-10-20T13:26:48.806Z,2.60
2017-10-20T13:29:16.359Z,3.17
2017-10-20T13:31:43.980Z,3.13
2017-10-20T13:34:11.551Z,3.00
2017-10-20T13:36:39.148Z,4.80
2017-10-20T13:39:06.754Z,4.00
2017-10-20T13:41:34.299Z,3.63
2017-10-20T13:44:02.618Z,4.60
2017-10-20T13:46:30.214Z,3.20
2017-10-20T13:48:57.788Z,3.17
2017-10-20T13:51:26.121Z,3.60
2017-10-20T13:53:53.728Z,3.50
2017-10-20T13:56:22.053Z,3.30
2017-10-20T13:58:49.610Z,2.50
2017-10-20T14:01:17.198Z,3.63
2017-10-20T14:03:44.790Z,3.87
2017-10-20T14:06:13.143Z,3.43
2017-10-20T14:08:40.731Z,3.10
2017-10-20T14:11:09.082Z,3.73
2017-10-20T14:13:36.651Z,3.30
2017-10-20T14:16:04.236Z,3.17
2017-10-20T14:18:32.585Z,3.27
2017-10-20T14:21:00.140Z,5.43
2017-10-20T14:23:27.730Z,2.80
2017-10-20T14:25:56.047Z,3.30
2017-10-20T14:28:23.602Z,2.93
2017-10-20T14:30:51.180Z,2.93
2017-10-20T14:33:18.750Z,2.90
2017-10-20T14:35:46.330Z,2.90
2017-10-20T14:38:13.924Z,3.10
2017-10-20T14:40:41.472Z,4.33
2017-10-20T14:43:09.798Z,3.60
2017-10-20T14:45:37.421Z,3.27
2017-10-20T14:48:04.976Z,3.07
2017-10-20T14:50:32.548Z,4.13
2017-10-20T14:53:00.143Z,3.43
2017-10-20T14:55:27.692Z,15.07
2017-10-20T14:57:55.268Z,8.37
2017-10-20T15:00:22.874Z,3.47
2017-10-20T15:02:50.463Z,2.50
2017-10-20T15:05:18.015Z,3.20
2017-10-20T15:07:45.621Z,3.20
2017-10-20T15:10:13.187Z,3.20
2017-10-20T15:12:41.527Z,3.10
2017-10-20T15:15:09.105Z,3.00
2017-10-20T15:17:36.676Z,2.77
2017-10-20T15:20:04.236Z,3.17
2017-10-20T15:22:31.856Z,3.80
2017-10-20T15:24:59.415Z,3.33
2017-10-20T15:27:26.971Z,2.60
2017-10-20T15:29:54.591Z,2.50
2017-10-20T15:32:22.922Z,3.00
2017-10-20T15:34:50.481Z,3.83
2017-10-20T15:37:18.083Z,2.60
2017-10-20T15:39:45.715Z,2.77
2017-10-20T15:42:13.279Z,3.73
2017-10-20T15:44:40.872Z,3.30
2017-10-20T15:47:09.215Z,3.50
2017-10-20T15:49:36.769Z,3.07
2017-10-20T15:52:04.380Z,3.00
2017-10-20T15:54:32.712Z,3.20
2017-10-20T15:57:00.266Z,2.77
2017-10-20T15:59:27.845Z,3.40
2017-10-20T16:01:55.394Z,3.37
2017-10-20T16:04:23.834Z,3.00
2017-10-20T16:06:51.451Z,3.47
2017-10-20T16:09:19.008Z,3.53
2017-10-20T16:11:46.574Z,3.00
2017-10-20T16:14:14.148Z,3.60
2017-10-20T16:16:41.691Z,2.73
2017-10-20T16:19:09.232Z,3.20
2017-10-20T16:21:36.824Z,3.53
2017-10-20T16:24:05.157Z,3.17
2017-10-20T16:26:32.724Z,3.97
2017-10-20T16:29:00.340Z,3.60
2017-10-20T16:31:27.924Z,3.90
2017-10-20T16:33:55.477Z,4.70
2017-10-20T16:36:23.583Z,3.60
2017-10-20T16:38:51.147Z,3.73
2017-10-20T16:41:18.699Z,3.73
2017-10-20T16:43:46.281Z,4.30
2017-10-20T16:46:13.853Z,4.47
2017-10-20T16:48:43.186Z,3.80
2017-10-20T16:51:10.777Z,5.27
2017-10-20T16:53:38.342Z,4.40
2017-10-20T16:56:05.913Z,4.10
2017-10-20T16:58:33.510Z,4.90
2017-10-20T17:01:01.065Z,4.27
2017-10-20T17:03:29.400Z,4.77
2017-10-20T17:05:56.998Z,4.10
2017-10-20T17:08:25.337Z,4.07
2017-10-20T17:10:52.885Z,4.50
2017-10-20T17:13:20.473Z,4.30
2017-10-20T17:15:48.049Z,4.57
2017-10-20T17:18:16.392Z,5.63
2017-10-20T17:20:43.976Z,4.60
2017-10-20T17:23:11.542Z,4.13
2017-10-20T17:25:39.847Z,3.97
2017-10-20T17:28:07.436Z,4.67
2017-10-20T17:30:34.976Z,3.80
2017-10-20T17:33:02.535Z,4.50
2017-10-20T17:35:30.130Z,5.57
2017-10-20T17:37:57.676Z,4.70
2017-10-20T17:40:25.230Z,4.53
2017-10-20T17:42:52.806Z,5.07
2017-10-20T17:45:20.352Z,4.13
2017-10-20T17:47:47.906Z,5.63
2017-10-20T17:50:15.493Z,5.27
2017-10-20T17:52:43.065Z,4.93
2017-10-20T17:55:10.641Z,5.80
2017-10-20T17:57:38.990Z,6.03
2017-10-20T18:00:06.553Z,8.63
2017-10-20T18:02:34.148Z,15.57
2017-10-20T18:05:02.512Z,12.73
2017-10-20T18:07:30.838Z,10.30
2017-10-20T18:09:58.407Z,8.97
2017-10-20T18:12:26.059Z,10.10
2017-10-20T18:14:53.627Z,10.17
2017-10-20T18:17:21.186Z,9.40
2017-10-20T18:19:48.781Z,7.53
2017-10-20T18:22:16.352Z,7.00
2017-10-20T18:24:44.674Z,6.60
2017-10-20T18:27:12.256Z,7.30
2017-10-20T18:29:39.812Z,5.80
2017-10-20T18:32:07.360Z,5.70
2017-10-20T18:34:34.931Z,6.13
2017-10-20T18:37:02.477Z,5.17
2017-10-20T18:39:30.050Z,5.33
2017-10-20T18:41:57.630Z,5.10
2017-10-20T18:44:25.193Z,5.70
2017-10-20T18:46:52.754Z,9.00
2017-10-20T18:49:20.342Z,8.80
2017-10-20T18:51:48.658Z,8.03
2017-10-20T18:54:16.981Z,8.50
2017-10-20T18:56:45.319Z,8.30
2017-10-20T18:59:12.891Z,6.63
2017-10-20T19:01:40.461Z,7.33
2017-10-20T19:04:08.050Z,7.77
2017-10-20T19:06:35.613Z,6.80
2017-10-20T19:09:03.207Z,7.20
2017-10-20T19:11:30.794Z,6.87
2017-10-20T19:13:58.368Z,8.30
2017-10-20T19:16:26.724Z,8.00
2017-10-20T19:18:54.324Z,7.27
2017-10-20T19:21:22.639Z,7.90
2017-10-20T19:23:50.217Z,7.57
2017-10-20T19:26:17.805Z,8.00
2017-10-20T19:28:46.139Z,6.87
2017-10-20T19:31:13.698Z,7.10
2017-10-20T19:33:41.271Z,8.30
2017-10-20T19:36:08.834Z,7.70
2017-10-20T19:38:36.394Z,7.80
2017-10-20T19:41:04.007Z,6.97
2017-10-20T19:43:31.583Z,7.67
2017-10-20T19:45:59.147Z,8.03
2017-10-20T19:48:26.733Z,8.33
2017-10-20T19:50:54.295Z,8.03
2017-10-20T19:53:21.862Z,7.73
2017-10-20T19:55:49.468Z,8.87
2017-10-20T19:58:17.053Z,7.43
2017-10-20T20:00:44.623Z,7.40
2017-10-20T20:03:12.227Z,7.90
2017-10-20T20:05:40.548Z,7.80
2017-10-20T20:08:08.335Z,8.83
2017-10-20T20:10:35.970Z,8.93
2017-10-20T20:13:03.530Z,8.00
2017-10-20T20:15:31.084Z,7.70
2017-10-20T20:17:58.684Z,8.80
2017-10-20T20:20:26.299Z,7.80
2017-10-20T20:22:53.884Z,7.37
2017-10-20T20:25:21.506Z,7.80
2017-10-20T20:27:49.064Z,8.07
2017-10-20T20:30:28.367Z,7.60
2017-10-20T20:32:55.971Z,8.73
2017-10-20T20:35:23.577Z,7.37
2017-10-20T20:37:51.174Z,8.20
2017-10-20T20:40:18.772Z,9.87
2017-10-20T20:42:46.878Z,8.40
2017-10-20T20:45:14.463Z,7.70
2017-10-20T20:47:42.781Z,8.90
2017-10-20T20:50:10.365Z,9.10
2017-10-20T20:52:37.959Z,8.53
2017-10-20T20:55:06.285Z,9.00
2017-10-20T20:57:33.858Z,7.00
2017-10-20T21:00:01.455Z,8.83
2017-10-20T21:02:29.776Z,7.80
2017-10-20T21:04:57.365Z,8.97
2017-10-20T21:07:24.967Z,9.47
2017-10-20T21:09:52.582Z,8.17
2017-10-20T21:12:20.152Z,8.53
2017-10-20T21:14:47.765Z,8.90
2017-10-20T21:17:15.316Z,8.63
2017-10-20T21:19:42.901Z,9.60
2017-10-20T21:22:10.489Z,8.73
2017-10-20T21:24:38.050Z,9.20
2017-10-20T21:27:05.645Z,9.00
2017-10-20T21:29:33.234Z,9.30
2017-10-20T21:32:00.791Z,8.00
2017-10-20T21:34:29.155Z,8.73
2017-10-20T21:36:56.728Z,8.90
2017-10-20T21:39:24.294Z,8.30
2017-10-20T21:41:51.873Z,8.03
2017-10-20T21:44:19.461Z,9.63
2017-10-20T21:46:47.794Z,9.77
2017-10-20T21:49:15.379Z,9.10
2017-10-20T21:51:42.970Z,9.23
2017-10-20T21:54:11.294Z,9.87
2017-10-20T21:56:38.850Z,9.50
2017-10-20T21:59:06.471Z,8.20
2017-10-20T22:01:34.807Z,9.73
2017-10-20T22:04:02.384Z,9.60
2017-10-20T22:06:29.976Z,9.20
2017-10-20T22:08:57.534Z,9.93
2017-10-20T22:11:25.103Z,9.33
2017-10-20T22:13:52.709Z,9.07
2017-10-20T22:16:20.279Z,9.47
2017-10-20T22:18:47.842Z,9.30
2017-10-20T22:21:15.433Z,8.37
2017-10-20T22:23:43.004Z,10.73
2017-10-20T22:26:10.575Z,9.60
2017-10-20T22:28:38.170Z,9.93
2017-10-20T22:31:05.725Z,9.83
2017-10-20T22:33:33.304Z,10.07
2017-10-20T22:36:00.901Z,13.20
2017-10-20T22:38:28.472Z,10.43
2017-10-20T22:40:56.021Z,9.87
2017-10-20T22:43:23.606Z,8.50
2017-10-20T22:45:51.390Z,8.60
2017-10-20T22:48:18.948Z,8.60
2017-10-20T22:50:47.327Z,8.97
2017-10-20T22:53:14.887Z,9.70
2017-10-20T22:55:42.454Z,8.53
2017-10-20T22:58:10.058Z,7.93
2017-10-20T23:00:37.617Z,9.00
2017-10-20T23:03:05.177Z,7.83
2017-10-20T23:05:32.781Z,7.00
2017-10-20T23:08:00.347Z,6.10
2017-10-20T23:10:27.930Z,7.50
2017-10-20T23:12:56.052Z,8.00
2017-10-20T23:15:24.308Z,8.80
2017-10-20T23:17:51.934Z,8.03
2017-10-20T23:20:19.531Z,9.37
2017-10-20T23:22:47.105Z,8.50
2017-10-20T23:25:14.670Z,7.30
2017-10-20T23:27:42.257Z,10.10
2017-10-20T23:30:09.844Z,9.40
2017-10-20T23:32:38.182Z,10.07
2017-10-20T23:35:05.780Z,8.23
2017-10-20T23:37:33.351Z,8.10
2017-10-20T23:40:01.673Z,9.80
2017-10-20T23:42:29.261Z,8.20
2017-10-20T23:44:56.846Z,7.50
2017-10-20T23:47:25.184Z,8.77
2017-10-20T23:49:52.763Z,7.50
2017-10-20T23:52:20.317Z,7.20
2017-10-20T23:54:47.877Z,7.13
2017-10-20T23:57:15.479Z,8.57
2017-10-20T23:59:43.811Z,7.90
